createdAt,value
2019-05-17T00:01:37.477Z,13.90
2019-05-17T00:04:22.913Z,13.70
2019-05-17T00:07:08.786Z,13.70
2019-05-17T00:09:57.027Z,13.80
2019-05-17T00:12:42.937Z,13.90
2019-05-17T00:15:28.989Z,13.90
2019-05-17T00:18:17.061Z,14.00
2019-05-17T00:21:03.190Z,14.00
2019-05-17T00:23:49.129Z,14.00
2019-05-17T00:26:36.267Z,13.90
2019-05-17T00:29:22.885Z,13.80
2019-05-17T00:32:08.876Z,13.70
2019-05-17T00:34:56.378Z,13.70
2019-05-17T00:37:43.073Z,13.80
2019-05-17T00:40:29.310Z,13.90
2019-05-17T00:43:16.896Z,13.90
2019-05-17T00:46:03.476Z,13.80
2019-05-17T00:48:49.784Z,13.70
2019-05-17T00:51:36.959Z,13.70
2019-05-17T00:54:23.601Z,13.70
2019-05-17T00:57:09.786Z,13.70
2019-05-17T00:59:56.542Z,13.60
2019-05-17T01:02:42.867Z,13.70
2019-05-17T01:05:29.137Z,13.70
2019-05-17T01:08:17.285Z,13.40
2019-05-17T01:11:04.190Z,13.20
2019-05-17T01:13:50.237Z,13.00
2019-05-17T01:16:36.767Z,13.10
2019-05-17T01:19:22.885Z,13.10
2019-05-17T01:22:08.933Z,13.20
2019-05-17T01:24:56.898Z,13.20
2019-05-17T01:27:43.073Z,13.10
2019-05-17T01:30:29.051Z,12.90
2019-05-17T01:33:17.085Z,12.70
2019-05-17T01:36:03.335Z,12.70
2019-05-17T01:38:50.421Z,12.70
2019-05-17T01:41:37.270Z,12.70
2019-05-17T01:44:23.537Z,12.50
2019-05-17T01:47:09.607Z,12.30
2019-05-17T01:49:57.532Z,12.30
2019-05-17T01:52:45.860Z,12.50
2019-05-17T01:55:31.821Z,12.60
2019-05-17T01:58:17.865Z,12.60
2019-05-17T02:01:07.360Z,12.60
2019-05-17T02:03:53.256Z,12.40
2019-05-17T02:06:39.265Z,12.40
2019-05-17T02:09:37.287Z,12.50
2019-05-17T02:12:13.558Z,12.50
2019-05-17T02:14:59.660Z,12.70
2019-05-17T02:17:46.886Z,12.70
2019-05-17T02:20:33.344Z,12.90
2019-05-17T02:23:19.418Z,13.00
2019-05-17T02:26:06.643Z,12.90
2019-05-17T02:28:53.122Z,12.90
2019-05-17T02:31:39.260Z,12.90
2019-05-17T02:34:25.251Z,12.90
2019-05-17T02:37:13.643Z,12.90
2019-05-17T02:40:04.488Z,12.80
2019-05-17T02:42:47.376Z,12.90
2019-05-17T02:45:33.536Z,12.70
2019-05-17T02:48:22.927Z,12.40
2019-05-17T02:51:07.721Z,12.20
2019-05-17T02:53:53.791Z,12.00
2019-05-17T02:56:43.258Z,11.80
2019-05-17T02:59:27.847Z,11.70
2019-05-17T03:02:14.038Z,11.50
2019-05-17T03:05:03.579Z,11.50
2019-05-17T03:07:52.594Z,11.40
2019-05-17T03:10:37.533Z,11.60
2019-05-17T03:13:23.737Z,11.30
2019-05-17T03:16:09.966Z,11.40
2019-05-17T03:18:55.821Z,11.40
2019-05-17T03:21:42.936Z,11.40
2019-05-17T03:24:29.410Z,11.60
2019-05-17T03:27:15.581Z,11.70
2019-05-17T03:30:04.023Z,11.70
2019-05-17T03:32:55.446Z,11.70
2019-05-17T03:35:38.764Z,11.40
2019-05-17T03:38:25.247Z,11.40
2019-05-17T03:41:22.241Z,11.40
2019-05-17T03:44:02.938Z,11.30
2019-05-17T03:46:47.464Z,11.40
2019-05-17T03:49:33.441Z,11.50
2019-05-17T03:52:22.238Z,11.60
2019-05-17T03:55:07.414Z,11.50
2019-05-17T03:57:53.640Z,11.50
2019-05-17T04:00:42.617Z,11.60
2019-05-17T04:03:32.382Z,11.50
2019-05-17T04:06:17.109Z,11.40
2019-05-17T04:09:05.353Z,11.40
2019-05-17T04:11:53.573Z,11.30
2019-05-17T04:14:42.653Z,11.40
2019-05-17T04:17:27.346Z,11.40
2019-05-17T04:20:14.423Z,11.40
2019-05-17T04:23:03.459Z,11.50
2019-05-17T04:25:48.553Z,11.70
2019-05-17T04:28:34.595Z,11.90
2019-05-17T04:31:22.793Z,12.00
2019-05-17T04:34:08.791Z,12.20
2019-05-17T04:36:54.862Z,12.20
2019-05-17T04:39:43.166Z,12.30
2019-05-17T04:42:28.679Z,12.40
2019-05-17T04:45:14.662Z,12.50
2019-05-17T04:48:03.903Z,12.60
2019-05-17T04:50:48.737Z,12.50
2019-05-17T04:53:34.843Z,12.50
2019-05-17T04:56:22.758Z,12.50
2019-05-17T04:59:09.140Z,12.50
2019-05-17T05:01:55.158Z,12.50
2019-05-17T05:04:43.550Z,12.30
2019-05-17T05:07:29.921Z,12.30
2019-05-17T05:10:15.871Z,12.40
2019-05-17T05:13:03.173Z,12.50
2019-05-17T05:15:52.021Z,12.50
2019-05-17T05:18:37.575Z,12.60
2019-05-17T05:21:24.841Z,12.70
2019-05-17T05:24:12.745Z,12.70
2019-05-17T05:26:58.669Z,12.70
2019-05-17T05:29:44.693Z,12.80
2019-05-17T05:32:31.528Z,12.80
2019-05-17T05:35:17.878Z,12.90
2019-05-17T05:38:04.009Z,12.90
2019-05-17T05:40:52.007Z,13.00
2019-05-17T05:43:38.254Z,13.10
2019-05-17T05:46:24.233Z,13.20
2019-05-17T05:49:12.360Z,13.20
2019-05-17T05:51:58.562Z,13.30
2019-05-17T05:54:44.596Z,13.30
2019-05-17T05:57:32.220Z,13.30
2019-05-17T06:00:18.875Z,13.40
2019-05-17T06:03:05.130Z,13.50
2019-05-17T06:05:52.554Z,13.60
2019-05-17T06:08:38.837Z,13.70
2019-05-17T06:11:24.832Z,13.90
2019-05-17T06:14:12.322Z,14.10
2019-05-17T06:16:58.813Z,14.20
2019-05-17T06:19:44.861Z,14.40
2019-05-17T06:22:31.798Z,14.50
2019-05-17T06:25:17.935Z,14.40
2019-05-17T06:28:03.873Z,14.40
2019-05-17T06:30:51.994Z,14.70
2019-05-17T06:33:38.147Z,14.80
2019-05-17T06:36:24.205Z,14.90
2019-05-17T06:39:11.704Z,14.70
2019-05-17T06:41:57.986Z,15.00
2019-05-17T06:44:43.981Z,15.30
2019-05-17T06:47:30.189Z,15.40
2019-05-17T06:50:16.363Z,15.40
2019-05-17T06:53:04.386Z,15.50
2019-05-17T06:55:50.388Z,15.40
2019-05-17T06:58:36.477Z,15.60
2019-05-17T07:01:22.454Z,15.80
2019-05-17T07:04:10.204Z,15.90
2019-05-17T07:07:31.069Z,16.10
2019-05-17T07:10:16.910Z,16.30
2019-05-17T07:13:03.029Z,16.50
2019-05-17T07:15:51.002Z,16.60
2019-05-17T07:18:37.101Z,16.80
2019-05-17T07:21:23.169Z,16.80
2019-05-17T07:24:10.071Z,17.00
2019-05-17T07:26:56.345Z,17.10
2019-05-17T07:29:42.541Z,17.20
2019-05-17T07:32:29.753Z,17.20
2019-05-17T07:35:16.080Z,17.00
2019-05-17T07:38:02.106Z,17.10
2019-05-17T07:40:50.229Z,17.30
2019-05-17T07:43:37.281Z,17.40
2019-05-17T07:46:23.097Z,17.60
2019-05-17T07:49:10.888Z,17.90
2019-05-17T07:51:56.978Z,18.10
2019-05-17T07:54:43.999Z,18.00
2019-05-17T07:57:30.143Z,18.00
2019-05-17T08:00:19.953Z,18.10
2019-05-17T08:03:05.590Z,18.30
2019-05-17T08:05:53.141Z,18.40
2019-05-17T08:08:40.937Z,18.40
2019-05-17T08:11:26.954Z,18.50
2019-05-17T08:14:25.515Z,18.50
2019-05-17T08:17:01.234Z,18.60
2019-05-17T08:19:49.645Z,18.90
2019-05-17T08:22:35.321Z,19.00
2019-05-17T08:25:21.452Z,19.10
2019-05-17T08:27:50.370Z,19.20
2019-05-17T08:30:20.742Z,19.10
2019-05-17T08:32:50.469Z,19.10
2019-05-17T08:35:19.796Z,19.20
2019-05-17T08:37:49.924Z,19.30
2019-05-17T08:40:19.799Z,19.40
2019-05-17T08:42:46.963Z,19.60
2019-05-17T08:45:14.711Z,19.70
2019-05-17T08:47:42.655Z,19.80
2019-05-17T08:50:11.541Z,19.80
2019-05-17T08:52:40.227Z,19.90
2019-05-17T08:55:09.720Z,19.70
2019-05-17T08:57:40.071Z,19.60
2019-05-17T09:00:10.164Z,19.60
2019-05-17T09:02:37.325Z,19.70
2019-05-17T09:05:05.382Z,19.80
2019-05-17T09:07:34.085Z,20.10
2019-05-17T09:10:02.107Z,20.20
2019-05-17T09:12:30.577Z,20.40
2019-05-17T09:15:00.239Z,20.70
2019-05-17T09:17:29.998Z,20.80
2019-05-17T09:19:57.720Z,20.80
2019-05-17T09:22:26.397Z,20.90
2019-05-17T09:24:54.145Z,20.90
2019-05-17T09:27:22.372Z,21.00
2019-05-17T09:29:50.210Z,21.10
2019-05-17T09:32:19.925Z,21.20
2019-05-17T09:34:49.646Z,21.10
2019-05-17T09:37:19.845Z,21.10
2019-05-17T09:39:46.581Z,21.20
2019-05-17T09:42:14.277Z,21.20
2019-05-17T09:44:41.901Z,21.40
2019-05-17T09:47:10.130Z,21.40
2019-05-17T09:49:39.489Z,21.20
2019-05-17T09:52:09.460Z,21.30
2019-05-17T09:54:44.272Z,21.30
2019-05-17T09:57:06.545Z,21.30
2019-05-17T09:59:34.202Z,21.30
2019-05-17T10:02:01.846Z,21.50
2019-05-17T10:04:30.440Z,21.60
2019-05-17T10:06:59.377Z,21.80
2019-05-17T10:09:27.112Z,21.80
2019-05-17T10:11:54.806Z,21.80
2019-05-17T10:14:27.654Z,21.80
2019-05-17T10:16:52.092Z,21.90
2019-05-17T10:19:23.407Z,22.00
2019-05-17T10:21:49.257Z,22.10
2019-05-17T10:24:16.914Z,22.10
2019-05-17T10:26:44.453Z,22.10
2019-05-17T10:29:12.135Z,22.20
2019-05-17T10:31:39.936Z,22.30
2019-05-17T10:34:09.606Z,22.30
2019-05-17T10:36:37.268Z,22.20
2019-05-17T10:39:06.024Z,22.40
2019-05-17T10:41:33.793Z,22.50
2019-05-17T10:44:01.677Z,22.60
2019-05-17T10:46:30.030Z,22.70
2019-05-17T10:48:57.910Z,22.80
2019-05-17T10:51:25.597Z,22.80
2019-05-17T10:53:53.249Z,22.90
2019-05-17T10:56:23.562Z,22.90
2019-05-17T10:58:50.574Z,22.80
2019-05-17T11:01:20.033Z,22.90
2019-05-17T11:03:50.105Z,22.90
2019-05-17T11:06:19.616Z,22.80
2019-05-17T11:08:49.952Z,22.80
2019-05-17T11:11:19.831Z,22.80
2019-05-17T11:13:47.085Z,22.90
2019-05-17T11:16:14.792Z,22.80
2019-05-17T11:18:42.461Z,22.90
2019-05-17T11:21:10.109Z,23.10
2019-05-17T11:23:37.787Z,23.10
2019-05-17T11:26:05.475Z,23.20
2019-05-17T11:28:33.217Z,23.30
2019-05-17T11:31:01.223Z,23.20
2019-05-17T11:33:29.276Z,23.20
2019-05-17T11:35:57.016Z,23.40
2019-05-17T11:38:24.821Z,23.60
2019-05-17T11:40:52.465Z,23.70
2019-05-17T11:43:20.133Z,23.70
2019-05-17T11:45:47.849Z,23.80
2019-05-17T11:48:15.804Z,23.90
2019-05-17T11:50:44.010Z,24.00
2019-05-17T11:53:11.701Z,24.10
2019-05-17T11:55:40.434Z,24.10
2019-05-17T11:58:08.150Z,24.10
2019-05-17T12:00:36.131Z,24.00
2019-05-17T12:03:04.236Z,23.90
2019-05-17T12:05:32.006Z,23.90
2019-05-17T12:07:59.653Z,23.90
2019-05-17T12:10:27.378Z,24.10
2019-05-17T12:12:55.235Z,23.70
2019-05-17T12:15:22.936Z,23.70
2019-05-17T12:17:50.694Z,23.70
2019-05-17T12:20:18.615Z,23.80
2019-05-17T12:22:46.333Z,23.90
2019-05-17T12:25:14.426Z,24.10
2019-05-17T12:27:42.124Z,24.20
2019-05-17T12:30:10.108Z,24.50
2019-05-17T12:32:37.958Z,24.70
2019-05-17T12:35:06.010Z,25.00
2019-05-17T12:37:33.754Z,25.10
2019-05-17T12:40:01.587Z,24.90
2019-05-17T12:42:29.418Z,24.70
2019-05-17T12:44:57.050Z,24.60
2019-05-17T12:47:24.856Z,24.60
2019-05-17T12:49:52.648Z,24.70
2019-05-17T12:52:20.261Z,24.70
2019-05-17T12:54:47.910Z,24.80
2019-05-17T12:57:15.586Z,24.80
2019-05-17T12:59:43.248Z,24.80
2019-05-17T13:02:12.408Z,24.70
2019-05-17T13:04:40.385Z,24.80
2019-05-17T13:07:08.046Z,24.90
2019-05-17T13:09:35.720Z,25.20
2019-05-17T13:12:03.407Z,25.20
2019-05-17T13:14:31.080Z,25.10
2019-05-17T13:16:59.573Z,25.10
2019-05-17T13:19:27.218Z,25.10
2019-05-17T13:21:54.901Z,25.10
2019-05-17T13:24:22.616Z,25.00
2019-05-17T13:26:50.309Z,24.90
2019-05-17T13:29:17.995Z,24.90
2019-05-17T13:31:45.716Z,24.90
2019-05-17T13:34:13.427Z,24.80
2019-05-17T13:36:41.115Z,24.80
2019-05-17T13:39:08.785Z,24.70
2019-05-17T13:41:36.575Z,24.60
2019-05-17T13:44:04.289Z,24.50
2019-05-17T13:46:33.415Z,24.50
2019-05-17T13:49:02.065Z,24.50
2019-05-17T13:51:30.294Z,24.70
2019-05-17T13:53:57.942Z,24.70
2019-05-17T13:56:25.633Z,24.80
2019-05-17T13:58:53.337Z,24.70
2019-05-17T14:01:21.087Z,24.80
2019-05-17T14:03:48.811Z,25.00
2019-05-17T14:06:16.485Z,25.10
2019-05-17T14:08:44.834Z,25.10
2019-05-17T14:11:12.715Z,25.10
2019-05-17T14:13:40.483Z,25.10
2019-05-17T14:16:08.354Z,25.10
2019-05-17T14:18:36.078Z,25.20
2019-05-17T14:21:03.929Z,25.20
2019-05-17T14:23:31.844Z,25.10
2019-05-17T14:25:59.592Z,25.00
2019-05-17T14:28:27.529Z,25.10
2019-05-17T14:30:55.299Z,25.10
2019-05-17T14:33:23.067Z,25.20
2019-05-17T14:35:51.873Z,25.20
2019-05-17T14:38:19.594Z,25.20
2019-05-17T14:41:05.892Z,25.40
2019-05-17T14:43:16.880Z,25.40
2019-05-17T14:45:44.509Z,25.30
2019-05-17T14:48:12.275Z,25.00
2019-05-17T14:50:40.409Z,24.90
2019-05-17T14:53:08.200Z,24.90
2019-05-17T14:55:35.872Z,24.80
2019-05-17T14:58:03.953Z,24.80
2019-05-17T15:00:31.805Z,24.90
2019-05-17T15:02:59.536Z,25.10
2019-05-17T15:05:27.153Z,25.20
2019-05-17T15:07:55.308Z,25.30
2019-05-17T15:10:23.036Z,25.40
2019-05-17T15:12:50.802Z,25.40
2019-05-17T15:15:25.655Z,25.40
2019-05-17T15:17:48.138Z,25.50
2019-05-17T15:20:15.871Z,25.30
2019-05-17T15:22:43.560Z,25.50
2019-05-17T15:25:11.385Z,25.50
2019-05-17T15:27:39.457Z,25.40
2019-05-17T15:30:08.551Z,25.30
2019-05-17T15:32:36.298Z,25.00
2019-05-17T15:35:05.559Z,24.80
2019-05-17T15:37:33.437Z,24.40
2019-05-17T15:40:01.092Z,24.40
2019-05-17T15:42:43.246Z,24.50
2019-05-17T15:44:58.482Z,24.60
2019-05-17T15:47:26.266Z,24.70
2019-05-17T15:49:53.938Z,24.90
2019-05-17T15:52:21.729Z,24.90
2019-05-17T15:54:50.493Z,24.80
2019-05-17T15:57:18.178Z,24.90
2019-05-17T15:59:45.829Z,25.00
2019-05-17T16:02:15.378Z,25.20
2019-05-17T16:04:46.245Z,25.50
2019-05-17T16:07:13.889Z,25.40
2019-05-17T16:09:41.518Z,25.40
2019-05-17T16:12:09.190Z,25.50
2019-05-17T16:14:36.862Z,25.50
2019-05-17T16:17:04.613Z,25.60
2019-05-17T16:19:32.360Z,25.70
2019-05-17T16:22:00.167Z,25.60
2019-05-17T16:24:27.903Z,25.50
2019-05-17T16:26:55.579Z,25.20
2019-05-17T16:29:23.247Z,25.10
2019-05-17T16:31:50.953Z,25.00
2019-05-17T16:34:18.904Z,25.10
2019-05-17T16:36:47.062Z,25.00
2019-05-17T16:39:15.267Z,24.90
2019-05-17T16:41:43.098Z,24.90
2019-05-17T16:44:10.853Z,24.90
2019-05-17T16:46:38.551Z,24.90
2019-05-17T16:49:06.278Z,24.80
2019-05-17T16:51:34.030Z,24.80
2019-05-17T16:54:01.792Z,24.90
2019-05-17T16:56:29.451Z,25.00
2019-05-17T16:58:57.111Z,25.00
2019-05-17T17:01:24.791Z,24.90
2019-05-17T17:03:52.545Z,25.00
2019-05-17T17:06:20.385Z,24.90
2019-05-17T17:08:48.042Z,24.80
2019-05-17T17:11:15.769Z,24.80
2019-05-17T17:13:43.409Z,24.70
2019-05-17T17:16:11.113Z,24.70
2019-05-17T17:18:38.943Z,24.70
2019-05-17T17:21:06.660Z,24.60
2019-05-17T17:23:34.393Z,24.50
2019-05-17T17:26:02.073Z,24.50
2019-05-17T17:28:29.901Z,24.50
2019-05-17T17:30:57.591Z,24.60
2019-05-17T17:33:25.313Z,24.70
2019-05-17T17:35:53.034Z,24.60
2019-05-17T17:38:20.738Z,24.30
2019-05-17T17:40:48.435Z,24.30
2019-05-17T17:43:16.081Z,24.20
2019-05-17T17:45:43.710Z,24.10
2019-05-17T17:48:11.430Z,24.00
2019-05-17T17:50:39.099Z,23.90
2019-05-17T17:53:06.925Z,23.80
2019-05-17T17:55:34.693Z,24.00
2019-05-17T17:58:02.331Z,23.90
2019-05-17T18:00:30.105Z,23.80
2019-05-17T18:02:57.965Z,23.80
2019-05-17T18:05:25.689Z,23.80
2019-05-17T18:07:53.343Z,23.80
2019-05-17T18:10:26.562Z,23.70
2019-05-17T18:12:55.255Z,23.50
2019-05-17T18:15:32.637Z,23.20
2019-05-17T18:18:00.352Z,23.00
2019-05-17T18:20:28.023Z,22.90
2019-05-17T18:22:55.834Z,22.80
2019-05-17T18:25:23.613Z,22.70
2019-05-17T18:27:51.307Z,22.60
2019-05-17T18:30:19.094Z,22.60
2019-05-17T18:32:46.956Z,22.60
2019-05-17T18:35:14.879Z,22.70
2019-05-17T18:37:42.659Z,22.60
2019-05-17T18:40:10.644Z,22.50
2019-05-17T18:42:38.337Z,22.50
2019-05-17T18:45:06.414Z,22.40
2019-05-17T18:47:34.226Z,22.50
2019-05-17T18:50:02.020Z,22.50
2019-05-17T18:52:29.800Z,22.60
2019-05-17T18:54:57.566Z,22.60
2019-05-17T18:57:25.343Z,22.50
2019-05-17T18:59:53.086Z,22.40
2019-05-17T19:02:20.831Z,22.30
2019-05-17T19:04:48.479Z,22.30
2019-05-17T19:07:16.195Z,22.20
2019-05-17T19:09:43.994Z,22.10
2019-05-17T19:12:11.736Z,22.20
2019-05-17T19:14:42.860Z,22.20
2019-05-17T19:17:08.951Z,22.10
2019-05-17T19:19:36.618Z,22.10
2019-05-17T19:22:04.393Z,21.90
2019-05-17T19:24:32.037Z,21.80
2019-05-17T19:26:59.725Z,21.80
2019-05-17T19:29:27.435Z,21.80
2019-05-17T19:31:55.153Z,21.80
2019-05-17T19:34:22.842Z,21.80
2019-05-17T19:36:50.500Z,22.00
2019-05-17T19:39:18.191Z,21.90
2019-05-17T19:41:45.881Z,21.80
2019-05-17T19:44:13.498Z,21.70
2019-05-17T19:46:41.238Z,21.60
2019-05-17T19:49:08.865Z,21.60
2019-05-17T19:51:36.675Z,21.60
2019-05-17T19:54:04.745Z,21.50
2019-05-17T19:56:32.350Z,21.40
2019-05-17T19:59:00.498Z,21.40
2019-05-17T20:01:28.281Z,21.30
2019-05-17T20:03:57.035Z,21.30
2019-05-17T20:06:24.926Z,21.10
2019-05-17T20:08:52.717Z,21.10
2019-05-17T20:11:33.641Z,21.00
2019-05-17T20:13:51.057Z,20.90
2019-05-17T20:16:18.698Z,20.90
2019-05-17T20:18:46.385Z,20.80
2019-05-17T20:21:14.025Z,20.70
2019-05-17T20:23:43.657Z,20.60
2019-05-17T20:26:11.263Z,20.50
2019-05-17T20:28:38.940Z,20.40
2019-05-17T20:31:06.601Z,20.30
2019-05-17T20:33:34.393Z,20.40
2019-05-17T20:36:02.131Z,20.40
2019-05-17T20:38:29.885Z,20.30
2019-05-17T20:40:58.165Z,20.30
2019-05-17T20:43:25.865Z,20.30
2019-05-17T20:45:53.597Z,20.30
2019-05-17T20:48:21.266Z,20.30
2019-05-17T20:50:48.960Z,20.20
2019-05-17T20:53:19.265Z,20.10
2019-05-17T20:55:46.286Z,19.90
2019-05-17T20:58:14.057Z,19.80
2019-05-17T21:00:42.985Z,19.80
2019-05-17T21:03:13.764Z,19.90
2019-05-17T21:05:40.210Z,19.90
2019-05-17T21:08:07.978Z,19.70
2019-05-17T21:10:35.614Z,19.60
2019-05-17T21:13:03.366Z,19.60
2019-05-17T21:15:31.113Z,19.60
2019-05-17T21:17:58.705Z,19.50
2019-05-17T21:20:26.265Z,19.50
2019-05-17T21:22:53.786Z,19.60
2019-05-17T21:25:21.486Z,19.60
2019-05-17T21:27:49.137Z,19.40
2019-05-17T21:30:16.834Z,19.50
2019-05-17T21:32:44.496Z,19.50
2019-05-17T21:35:12.126Z,19.50
2019-05-17T21:37:39.802Z,19.40
2019-05-17T21:40:08.661Z,19.30
2019-05-17T21:42:36.375Z,19.30
2019-05-17T21:45:04.418Z,19.30
2019-05-17T21:47:32.097Z,19.30
2019-05-17T21:49:59.716Z,19.30
2019-05-17T21:52:27.420Z,19.20
2019-05-17T21:54:55.048Z,19.20
2019-05-17T21:57:22.774Z,19.20
2019-05-17T21:59:50.450Z,19.00
2019-05-17T22:02:18.244Z,19.10
2019-05-17T22:04:45.983Z,19.10
2019-05-17T22:07:13.644Z,19.10
2019-05-17T22:09:41.377Z,19.00
2019-05-17T22:12:10.393Z,19.00
2019-05-17T22:14:38.053Z,19.10
2019-05-17T22:17:05.733Z,19.10
2019-05-17T22:19:33.437Z,18.90
2019-05-17T22:22:01.169Z,18.80
2019-05-17T22:24:28.847Z,18.70
2019-05-17T22:26:56.477Z,18.70
2019-05-17T22:29:24.145Z,18.60
2019-05-17T22:31:51.827Z,18.70
2019-05-17T22:34:19.493Z,18.70
2019-05-17T22:36:47.141Z,18.70
2019-05-17T22:39:15.066Z,18.60
2019-05-17T22:41:42.699Z,18.60
2019-05-17T22:44:10.412Z,18.60
2019-05-17T22:46:38.109Z,18.70
2019-05-17T22:49:05.761Z,18.70
2019-05-17T22:51:33.462Z,18.70
2019-05-17T22:54:01.099Z,18.70
2019-05-17T22:56:28.745Z,18.60
2019-05-17T22:58:56.392Z,18.60
2019-05-17T23:01:24.050Z,18.40
2019-05-17T23:03:51.826Z,18.40
2019-05-17T23:06:19.461Z,18.40
2019-05-17T23:08:47.093Z,18.40
2019-05-17T23:11:14.750Z,18.10
2019-05-17T23:13:42.424Z,18.10
2019-05-17T23:16:11.573Z,17.90
2019-05-17T23:18:39.283Z,17.70
2019-05-17T23:21:06.913Z,17.60
2019-05-17T23:23:34.572Z,17.70
2019-05-17T23:26:02.286Z,17.60
2019-05-17T23:28:29.977Z,17.80
2019-05-17T23:30:57.659Z,17.80
2019-05-17T23:33:25.453Z,17.80
2019-05-17T23:35:53.208Z,17.80
2019-05-17T23:38:20.702Z,17.80
2019-05-17T23:40:48.376Z,17.80
2019-05-17T23:43:16.140Z,17.70
2019-05-17T23:45:43.762Z,17.60
2019-05-17T23:48:11.481Z,17.50
2019-05-17T23:50:39.090Z,17.50
2019-05-17T23:53:06.808Z,17.60
2019-05-17T23:55:34.480Z,17.60
2019-05-17T23:58:02.108Z,17.60
